Time;durP1;ratioP1;P1;durP2;ratioP2;P2;SDS_P1;SDS_P2;PMS_P1;PMS_P2;Temp;Humidity;BMP_temperature;BMP_pressure;BME280_temperature;BME280_humidity;BME280_pressure;Samples;Min_cycle;Max_cycle;Signal;HPM_P1;HPM_P2
2021/04/14 00:00:58;;;;;;;1.89;1.06;;;;;;;-0.38;70.57;100649.50;2000064;77;20807;-71
2021/04/14 00:03:59;;;;;;;3.47;1.40;;;;;;;-0.40;70.57;100657.88;2001519;81;20338;-71
2021/04/14 00:07:02;;;;;;;1.33;1.23;;;;;;;-0.39;70.79;100655.41;2001512;81;20356;-71
2021/04/14 00:10:05;;;;;;;2.64;1.51;;;;;;;-0.41;70.97;100645.91;2001376;80;20775;-71
2021/04/14 00:13:12;;;;;;;2.35;1.54;;;;;;;-0.44;70.85;100646.59;2001116;81;21051;-72
2021/04/14 00:16:18;;;;;;;1.99;1.36;;;;;;;-0.47;70.97;100646.44;2000696;77;20402;-71
2021/04/14 00:19:20;;;;;;;1.35;1.25;;;;;;;-0.60;71.39;100649.03;2001254;81;20328;-72
2021/04/14 00:22:22;;;;;;;1.77;1.34;;;;;;;-0.64;71.41;100640.31;2001368;81;20365;-72
2021/04/14 00:25:28;;;;;;;6.21;1.55;;;;;;;-0.67;71.34;100642.69;2000370;81;20793;-72
2021/04/14 00:28:30;;;;;;;2.64;1.55;;;;;;;-0.72;71.76;100631.34;2000908;81;20723;-71
2021/04/14 00:31:35;;;;;;;5.20;1.69;;;;;;;-0.75;72.23;100643.88;2000236;80;20332;-72
2021/04/14 00:34:37;;;;;;;1.75;1.60;;;;;;;-0.74;71.93;100643.09;2000896;81;20811;-71
2021/04/14 00:37:38;;;;;;;1.96;1.36;;;;;;;-0.75;71.70;100637.91;2001746;81;20852;-71
2021/04/14 00:40:43;;;;;;;3.71;1.41;;;;;;;-0.76;71.73;100647.22;2000230;81;20340;-72
2021/04/14 00:43:44;;;;;;;2.51;1.56;;;;;;;-0.77;71.52;100645.47;2001099;81;20324;-72
2021/04/14 00:46:46;;;;;;;1.39;1.25;;;;;;;-0.77;71.45;100642.91;2000006;77;20348;-71
2021/04/14 00:49:48;;;;;;;1.80;1.60;;;;;;;-0.80;71.50;100640.19;2001353;81;20424;-72
2021/04/14 00:52:50;;;;;;;1.42;1.25;;;;;;;-0.83;71.42;100640.00;2000585;81;20881;-71
2021/04/14 00:55:53;;;;;;;2.26;1.39;;;;;;;-0.84;71.74;100639.91;2001002;81;20509;-71
2021/04/14 00:58:55;;;;;;;3.53;1.42;;;;;;;-0.87;71.70;100638.06;2002195;81;21137;-71
2021/04/14 01:01:57;;;;;;;1.86;1.40;;;;;;;-0.90;71.54;100630.19;2000623;77;21656;-72
2021/04/14 01:04:59;;;;;;;2.91;1.30;;;;;;;-0.87;71.94;100629.53;2002236;81;20476;-72
2021/04/14 01:08:03;;;;;;;1.29;1.16;;;;;;;-0.95;72.16;100634.16;2001487;81;20213;-71
2021/04/14 01:11:06;;;;;;;1.51;1.20;;;;;;;-1.00;71.97;100622.81;2001855;81;20363;-72
2021/04/14 01:14:08;;;;;;;2.00;1.09;;;;;;;-1.04;71.72;100618.31;2001737;81;20381;-72
2021/04/14 01:17:10;;;;;;;3.94;1.39;;;;;;;-1.10;71.91;100613.69;2001072;77;20427;-72
2021/04/14 01:20:12;;;;;;;2.17;1.33;;;;;;;-1.14;72.03;100615.97;2001545;81;20317;-72
2021/04/14 01:23:15;;;;;;;2.88;1.31;;;;;;;-1.17;71.87;100614.13;2001358;81;20178;-71
2021/04/14 01:26:17;;;;;;;5.59;2.01;;;;;;;-1.17;71.95;100608.13;2002004;81;20313;-72
2021/04/14 01:29:18;;;;;;;5.48;1.31;;;;;;;-1.24;72.15;100605.22;2001996;81;20196;-72
2021/04/14 01:32:21;;;;;;;2.36;1.44;;;;;;;-1.27;72.75;100609.22;2000741;81;20762;-72
2021/04/14 01:35:26;;;;;;;1.94;1.34;;;;;;;-1.29;72.90;100611.69;2001258;81;20317;-72
2021/04/14 01:38:28;;;;;;;3.96;1.26;;;;;;;-1.31;72.52;100609.81;2002489;81;20332;-73
2021/04/14 01:41:29;;;;;;;1.92;1.24;;;;;;;-1.33;72.65;100624.16;2001049;81;20899;-72
2021/04/14 01:44:31;;;;;;;1.98;1.41;;;;;;;-1.37;72.73;100619.66;2001658;81;20364;-73
2021/04/14 01:47:32;;;;;;;1.59;1.20;;;;;;;-1.40;72.82;100625.44;2001188;78;21523;-72
2021/04/14 01:50:35;;;;;;;2.19;1.08;;;;;;;-1.40;72.73;100627.09;2001507;81;20239;-72
2021/04/14 01:53:37;;;;;;;3.48;1.27;;;;;;;-1.42;72.43;100621.03;2001088;81;20312;-73
2021/04/14 01:56:39;;;;;;;1.25;0.95;;;;;;;-1.41;72.82;100620.25;2002416;81;20221;-72
2021/04/14 01:59:42;;;;;;;1.14;1.06;;;;;;;-1.47;72.94;100615.63;2002437;81;20324;-73
2021/04/14 02:02:44;;;;;;;1.14;1.04;;;;;;;-1.49;73.32;100609.56;2001439;77;22025;-72
2021/04/14 02:05:46;;;;;;;2.51;1.14;;;;;;;-1.49;73.45;100614.66;2003050;81;20225;-72
2021/04/14 02:08:47;;;;;;;1.56;1.06;;;;;;;-1.53;73.40;100617.81;2003299;81;20865;-72
2021/04/14 02:11:49;;;;;;;3.17;1.26;;;;;;;-1.61;73.70;100611.34;2002936;81;20202;-72
2021/04/14 02:14:51;;;;;;;3.23;1.44;;;;;;;-1.68;74.26;100611.72;2002535;81;20325;-72
2021/04/14 02:17:54;;;;;;;2.62;1.76;;;;;;;-1.64;74.18;100604.38;2001773;77;21511;-72
2021/04/14 02:20:55;;;;;;;1.60;1.24;;;;;;;-1.60;74.29;100596.16;2003366;81;20196;-72
2021/04/14 02:23:57;;;;;;;1.33;1.20;;;;;;;-1.58;74.08;100597.16;2002830;80;20174;-72
2021/04/14 02:26:59;;;;;;;1.54;1.19;;;;;;;-1.57;74.18;100601.44;2002900;81;20203;-72
2021/04/14 02:30:07;;;;;;;2.00;1.39;;;;;;;-1.59;74.16;100597.06;2003205;81;20206;-72
2021/04/14 02:33:10;;;;;;;3.16;1.44;;;;;;;-1.61;74.07;100596.06;2002411;78;20439;-72
2021/04/14 02:36:12;;;;;;;2.72;1.48;;;;;;;-1.70;74.02;100591.28;2006691;80;20211;-72
2021/04/14 02:39:14;;;;;;;2.22;1.27;;;;;;;-1.75;74.15;100595.19;2003375;81;20832;-72
2021/04/14 02:42:15;;;;;;;1.04;1.01;;;;;;;-1.77;74.34;100594.22;2002495;81;20195;-71
2021/04/14 02:45:22;;;;;;;2.44;1.30;;;;;;;-1.80;74.13;100591.47;2001873;77;20504;-71
2021/04/14 02:48:23;;;;;;;1.60;0.91;;;;;;;-1.86;74.07;100591.94;2002681;81;20193;-72
2021/04/14 02:51:25;;;;;;;1.49;1.12;;;;;;;-1.86;74.04;100585.97;2003068;81;20613;-71
2021/04/14 02:54:26;;;;;;;2.27;1.14;;;;;;;-1.90;74.21;100587.47;2002822;81;20185;-71
2021/04/14 02:57:28;;;;;;;2.13;1.56;;;;;;;-1.87;74.28;100585.09;2002749;81;20199;-72
2021/04/14 03:00:30;;;;;;;1.28;1.04;;;;;;;-1.87;74.30;100589.31;2004616;77;20250;-71
2021/04/14 03:03:32;;;;;;;2.03;1.20;;;;;;;-1.87;74.51;100587.66;2002002;80;20197;-72
2021/04/14 03:06:34;;;;;;;2.21;1.20;;;;;;;-1.92;74.33;100586.47;2001604;81;20195;-72
2021/04/14 03:09:37;;;;;;;3.02;1.23;;;;;;;-1.93;74.44;100588.94;2002214;81;20185;-71
2021/04/14 03:12:40;;;;;;;1.34;1.16;;;;;;;-1.94;74.62;100587.16;2000948;81;20199;-72
2021/04/14 03:15:41;;;;;;;3.64;1.10;;;;;;;-1.95;74.51;100585.41;2000711;77;23114;-72
2021/04/14 03:18:43;;;;;;;3.46;0.96;;;;;;;-1.98;73.95;100585.19;2001600;81;20170;-72
2021/04/14 03:21:44;;;;;;;2.33;1.30;;;;;;;-2.00;73.79;100584.22;2001545;81;20177;-72
2021/04/14 03:24:46;;;;;;;1.30;1.20;;;;;;;-2.01;73.90;100577.34;2001549;81;20212;-72
2021/04/14 03:27:47;;;;;;;3.19;1.10;;;;;;;-1.97;74.50;100575.13;2000845;81;20173;-71
2021/04/14 03:30:49;;;;;;;2.76;1.20;;;;;;;-1.95;74.65;100578.66;2001147;81;22830;-71
2021/04/14 03:33:51;;;;;;;1.58;1.14;;;;;;;-1.98;74.61;100583.53;2000489;81;20526;-71
2021/04/14 03:36:53;;;;;;;2.22;1.00;;;;;;;-2.05;74.37;100581.38;2001431;81;20194;-71
2021/04/14 03:39:54;;;;;;;1.41;1.09;;;;;;;-2.11;74.33;100581.00;2001532;81;20190;-72
2021/04/14 03:42:57;;;;;;;2.14;1.42;;;;;;;-2.17;74.51;100583.13;2001191;81;20200;-71
2021/04/14 03:46:00;;;;;;;1.90;1.20;;;;;;;-2.20;74.30;100577.84;1999844;77;24509;-71
2021/04/14 03:49:02;;;;;;;2.41;1.20;;;;;;;-2.23;74.65;100587.81;2000938;81;20227;-71
2021/04/14 03:52:04;;;;;;;2.20;1.40;;;;;;;-2.25;74.95;100591.94;2002181;81;20312;-71
2021/04/14 03:55:08;;;;;;;2.91;1.23;;;;;;;-2.28;75.22;100584.97;2000923;81;20510;-71
2021/04/14 03:58:09;;;;;;;1.80;1.52;;;;;;;-2.30;75.29;100578.03;2001654;80;20174;-71
2021/04/14 04:01:14;;;;;;;2.97;1.56;;;;;;;-2.30;75.30;100586.53;2000179;77;20778;-71
2021/04/14 04:04:15;;;;;;;7.40;1.69;;;;;;;-2.31;75.33;100586.44;2001760;81;20194;-71
2021/04/14 04:07:17;;;;;;;2.58;1.68;;;;;;;-2.34;75.20;100583.69;2001612;81;20189;-71
2021/04/14 04:10:19;;;;;;;2.17;1.84;;;;;;;-2.35;75.25;100582.78;2000708;81;20166;-71
2021/04/14 04:13:21;;;;;;;3.31;1.56;;;;;;;-2.35;75.38;100580.25;2001706;81;20196;-71
2021/04/14 04:16:22;;;;;;;3.27;1.50;;;;;;;-2.36;75.39;100580.16;2000216;77;22611;-71
2021/04/14 04:19:25;;;;;;;2.96;1.50;;;;;;;-2.41;75.32;100587.50;2001318;81;20821;-71
2021/04/14 04:22:27;;;;;;;1.61;1.51;;;;;;;-2.42;75.40;100584.84;2000835;81;20752;-71
2021/04/14 04:25:30;;;;;;;1.84;1.60;;;;;;;-2.48;75.44;100585.34;2000908;81;20213;-71
2021/04/14 04:28:33;;;;;;;2.17;1.38;;;;;;;-2.47;75.68;100594.72;2001081;81;20197;-71
2021/04/14 04:31:35;;;;;;;1.51;1.21;;;;;;;-2.42;75.98;100585.72;2000476;80;20858;-71
2021/04/14 04:34:36;;;;;;;1.66;1.30;;;;;;;-2.45;75.58;100590.63;2000100;81;20199;-71
2021/04/14 04:37:38;;;;;;;2.39;1.23;;;;;;;-2.49;75.57;100592.09;2001867;81;20195;-71
2021/04/14 04:40:40;;;;;;;2.17;1.43;;;;;;;-2.48;75.98;100596.38;2001049;81;20192;-71
2021/04/14 04:43:43;;;;;;;1.99;1.27;;;;;;;-2.56;76.15;100597.53;2001335;81;20211;-70
2021/04/14 04:46:44;;;;;;;1.83;1.30;;;;;;;-2.56;76.03;100591.56;2000644;77;20696;-70
2021/04/14 04:49:46;;;;;;;1.68;1.58;;;;;;;-2.57;76.04;100595.75;2001018;81;20166;-71
2021/04/14 04:52:48;;;;;;;4.14;1.73;;;;;;;-2.54;76.33;100590.00;2001657;81;20170;-71
2021/04/14 04:55:50;;;;;;;2.96;1.29;;;;;;;-2.55;76.14;100589.13;2000872;81;20572;-71
2021/04/14 04:58:52;;;;;;;2.83;1.61;;;;;;;-2.53;76.23;100592.63;2002063;81;20279;-71
2021/04/14 05:01:56;;;;;;;2.37;1.34;;;;;;;-2.53;76.00;100595.19;1999512;77;21688;-71
2021/04/14 05:04:58;;;;;;;2.10;1.58;;;;;;;-2.54;75.98;100605.25;1998873;81;20291;-70
2021/04/14 05:08:00;;;;;;;2.04;1.69;;;;;;;-2.54;76.11;100603.59;1999353;81;20219;-70
2021/04/14 05:11:02;;;;;;;4.18;2.18;;;;;;;-2.50;76.40;100597.94;1998242;81;20221;-71
2021/04/14 05:14:04;;;;;;;3.69;1.77;;;;;;;-2.44;76.09;100610.19;1998751;81;20174;-72
2021/04/14 05:17:06;;;;;;;2.07;1.68;;;;;;;-2.44;76.07;100607.63;1997804;78;22242;-71
2021/04/14 05:20:08;;;;;;;2.18;1.68;;;;;;;-2.40;75.89;100614.69;1999681;81;20276;-72
2021/04/14 05:23:10;;;;;;;3.88;1.71;;;;;;;-2.35;76.06;100603.16;1998655;81;20235;-72
2021/04/14 05:26:14;;;;;;;2.30;1.72;;;;;;;-2.32;76.17;100603.38;1998869;81;21379;-71
2021/04/14 05:29:16;;;;;;;3.74;2.16;;;;;;;-2.32;76.56;100605.91;1999135;81;20206;-72
2021/04/14 05:32:17;;;;;;;3.64;2.53;;;;;;;-2.28;76.84;100602.78;1998703;77;24284;-72
2021/04/14 05:35:19;;;;;;;5.99;2.17;;;;;;;-2.15;76.92;100609.56;1998597;81;20283;-72
2021/04/14 05:38:21;;;;;;;5.03;2.01;;;;;;;-2.01;76.74;100607.91;1998544;81;20193;-72
2021/04/14 05:41:23;;;;;;;2.24;1.61;;;;;;;-1.94;76.74;100610.97;1998546;81;20719;-72
2021/04/14 05:44:24;;;;;;;3.09;1.73;;;;;;;-1.86;77.23;100612.31;1998548;81;20182;-72
2021/04/14 05:47:26;;;;;;;4.91;1.63;;;;;;;-1.78;77.55;100620.47;1999156;78;23710;-70
2021/04/14 05:50:28;;;;;;;3.88;2.17;;;;;;;-1.70;77.77;100620.94;1999377;81;20191;-71
2021/04/14 05:53:32;;;;;;;2.99;2.20;;;;;;;-1.52;77.90;100622.97;1999369;81;20181;-70
2021/04/14 05:56:33;;;;;;;2.54;1.55;;;;;;;-1.39;77.82;100622.09;1999533;81;20346;-78
2021/04/14 05:59:35;;;;;;;5.19;1.80;;;;;;;-0.99;77.64;100625.44;2002695;81;20416;-78
2021/04/14 06:02:41;;;;;;;3.81;2.31;;;;;;;-0.55;76.81;100626.34;1998644;78;23098;-79
2021/04/14 06:05:43;;;;;;;3.58;1.91;;;;;;;-0.19;75.62;100627.63;2000926;81;20369;-78
2021/04/14 06:08:45;;;;;;;4.20;1.89;;;;;;;0.03;74.47;100625.53;2000341;81;20321;-76
2021/04/14 06:11:47;;;;;;;2.71;1.81;;;;;;;0.36;73.83;100629.13;1999461;81;20733;-76
2021/04/14 06:14:48;;;;;;;3.88;1.81;;;;;;;0.69;72.72;100631.75;1999380;80;20541;-78
2021/04/14 06:17:50;;;;;;;3.83;1.90;;;;;;;1.07;71.73;100631.25;1993937;78;25554;-82
2021/04/14 06:20:51;;;;;;;3.75;1.65;;;;;;;1.43;70.69;100634.88;1994671;81;20359;-75
2021/04/14 06:23:53;;;;;;;3.69;1.91;;;;;;;1.79;69.37;100634.19;1994496;81;20364;-76
2021/04/14 06:26:58;;;;;;;3.91;2.35;;;;;;;2.13;67.85;100631.63;1995005;81;20388;-76
2021/04/14 06:30:05;;;;;;;2.72;1.86;;;;;;;2.51;67.34;100636.84;1993807;81;20714;-75
2021/04/14 06:33:09;;;;;;;2.44;1.59;;;;;;;2.72;66.09;100637.91;1999425;77;27475;-76
2021/04/14 06:36:11;;;;;;;3.28;2.03;;;;;;;2.81;65.86;100633.19;1999050;81;20864;-75
2021/04/14 06:39:15;;;;;;;3.39;1.99;;;;;;;3.05;65.55;100643.69;1999343;81;20380;-73
2021/04/14 06:42:54;;;;;;;4.07;1.99;;;;;;;3.45;64.40;100640.34;1999854;81;20324;-72
2021/04/14 06:46:03;;;;;;;2.47;1.91;;;;;;;3.40;63.63;100641.81;1995108;77;20434;-73
2021/04/14 06:49:11;;;;;;;;;;;;;;;3.03;64.61;100641.03;1994938;81;21009;-73
2021/04/14 06:52:19;;;;;;;2.38;1.52;;;;;;;2.87;65.15;100645.41;1993835;81;20089;-72
2021/04/14 06:55:27;;;;;;;5.31;2.34;;;;;;;2.79;65.48;100651.88;1993670;81;20343;-72
2021/04/14 06:58:36;;;;;;;5.81;1.91;;;;;;;2.72;65.16;100648.16;1994300;81;20190;-73
2021/04/14 07:01:45;;;;;;;5.57;2.01;;;;;;;2.73;65.14;100648.22;1995620;77;30494;-72
2021/04/14 07:04:50;;;;;;;;;;;;;;;2.73;65.32;100642.22;1999264;81;20596;-72
2021/04/14 07:07:55;;;;;;;3.16;1.84;;;;;;;2.74;65.78;100643.97;1998681;81;20075;-72
2021/04/14 07:11:01;;;;;;;2.69;2.44;;;;;;;2.81;65.61;100643.44;1999213;81;20352;-72
2021/04/14 07:14:03;;;;;;;5.32;2.04;;;;;;;2.85;66.43;100642.75;1998774;81;20369;-71
2021/04/14 07:17:17;;;;;;;4.68;2.36;;;;;;;2.87;66.62;100645.41;1998316;78;25036;-72
2021/04/14 07:20:25;;;;;;;3.59;1.96;;;;;;;2.95;66.46;100647.53;1999002;81;20433;-72
2021/04/14 07:23:45;;;;;;;3.76;2.00;;;;;;;3.03;65.86;100648.75;1998872;81;20351;-72
2021/04/14 07:27:03;;;;;;;3.30;2.05;;;;;;;3.09;64.86;100652.41;1999613;81;20817;-72
2021/04/14 07:30:15;;;;;;;4.03;2.77;;;;;;;3.29;64.95;100643.94;1998294;81;20340;-71
2021/04/14 07:33:40;;;;;;;2.65;2.22;;;;;;;3.51;64.77;100643.19;1993262;81;20182;-72
2021/04/14 07:36:59;;;;;;;3.71;2.00;;;;;;;3.73;64.23;100647.56;1994431;81;20321;-72
2021/04/14 07:40:28;;;;;;;2.63;2.13;;;;;;;3.94;64.45;100646.78;1993982;81;20340;-72
2021/04/14 07:43:30;;;;;;;4.41;2.33;;;;;;;4.29;64.57;100649.06;1993689;81;20206;-72
2021/04/14 07:46:35;;;;;;;5.19;2.56;;;;;;;4.59;63.72;100642.56;1993188;78;56538;-72
2021/04/14 07:49:38;;;;;;;2.69;2.38;;;;;;;4.84;62.88;100655.56;1993598;81;20314;-72
2021/04/14 07:52:40;;;;;;;5.07;2.35;;;;;;;5.00;61.60;100645.88;1994025;81;20325;-71
2021/04/14 07:55:42;;;;;;;4.21;2.44;;;;;;;5.18;61.51;100645.69;1993484;81;20318;-72
2021/04/14 07:58:44;;;;;;;3.31;2.19;;;;;;;5.40;60.95;100640.53;1993359;81;20337;-72
2021/04/14 08:01:52;;;;;;;4.97;2.38;;;;;;;5.60;60.82;100633.50;1992633;78;43330;-72
2021/04/14 08:05:05;;;;;;;3.64;1.99;;;;;;;5.84;60.20;100625.75;1993864;81;20318;-72
2021/04/14 08:08:29;;;;;;;4.61;2.44;;;;;;;6.04;59.47;100630.78;1993092;81;20166;-72
2021/04/14 08:11:33;;;;;;;5.47;2.45;;;;;;;6.22;57.08;100632.22;1993498;81;20313;-71
2021/04/14 08:14:36;;;;;;;5.00;2.38;;;;;;;6.43;56.47;100627.75;1993624;81;20333;-72
2021/04/14 08:17:39;;;;;;;8.21;2.10;;;;;;;6.49;55.42;100630.56;1992472;77;23226;-71
2021/04/14 08:20:42;;;;;;;4.47;2.34;;;;;;;6.66;54.88;100631.09;1993724;81;20314;-71
2021/04/14 08:23:56;;;;;;;3.86;2.00;;;;;;;6.54;54.19;100633.25;1992671;81;20933;-71
2021/04/14 08:27:13;;;;;;;5.36;1.88;;;;;;;6.74;54.38;100628.72;1993116;81;20317;-75
2021/04/14 08:30:20;;;;;;;6.38;2.36;;;;;;;7.06;55.40;100620.25;1992483;78;44644;-75
2021/04/14 08:33:26;;;;;;;5.54;1.80;;;;;;;7.20;53.46;100620.66;1988288;81;20433;-71
2021/04/14 08:36:35;;;;;;;3.71;1.67;;;;;;;7.42;54.58;100622.13;1988138;81;20333;-71
2021/04/14 08:39:36;;;;;;;;;;;;;;;7.59;51.93;100615.72;1989020;81;20316;-72
2021/04/14 08:42:39;;;;;;;4.21;1.30;;;;;;;7.62;51.77;100609.75;1988604;81;20063;-72
2021/04/14 08:45:45;;;;;;;4.74;1.88;;;;;;;7.81;51.71;100614.59;1988126;78;28652;-72
2021/04/14 08:48:55;;;;;;;2.01;1.50;;;;;;;8.40;51.16;100602.28;1993791;81;20313;-73
2021/04/14 08:51:58;;;;;;;3.24;1.28;;;;;;;9.22;48.85;100596.38;1993629;81;20208;-72
2021/04/14 08:55:00;;;;;;;5.64;1.55;;;;;;;9.63;47.83;100593.69;1993268;81;20212;-72
2021/04/14 08:58:02;;;;;;;2.96;1.38;;;;;;;9.57;45.68;100591.88;1993680;81;20208;-72
2021/04/14 09:01:08;;;;;;;2.40;1.20;;;;;;;9.77;44.09;100587.03;1994139;77;61710;-72
2021/04/14 09:04:12;;;;;;;3.58;1.01;;;;;;;9.83;44.11;100588.88;1998018;81;20186;-72
2021/04/14 09:07:17;;;;;;;2.97;0.81;;;;;;;10.05;44.03;100583.19;1997926;81;20202;-72
2021/04/14 09:10:28;;;;;;;2.14;0.85;;;;;;;9.92;40.79;100576.06;1998690;81;20906;-72
2021/04/14 09:13:47;;;;;;;2.49;1.00;;;;;;;10.48;40.25;100581.34;1998370;80;20221;-72
2021/04/14 09:16:51;;;;;;;2.11;0.90;;;;;;;11.11;38.95;100578.72;1994361;78;23796;-73
2021/04/14 09:19:55;;;;;;;1.86;0.90;;;;;;;11.17;37.92;100568.44;1997590;81;20304;-72
2021/04/14 09:23:12;;;;;;;4.21;0.70;;;;;;;11.05;37.99;100567.41;1994561;81;20691;-72
2021/04/14 09:26:27;;;;;;;1.02;0.75;;;;;;;11.40;38.36;100568.69;1994712;81;20219;-72
2021/04/14 09:29:45;;;;;;;2.42;0.80;;;;;;;11.63;37.49;100562.84;1994458;81;20220;-72
2021/04/14 09:32:51;;;;;;;2.05;0.60;;;;;;;11.97;37.63;100567.53;1992239;78;38761;-73
2021/04/14 09:35:53;;;;;;;1.45;0.70;;;;;;;11.20;34.67;100570.19;1993074;81;20196;-73
2021/04/14 09:39:08;;;;;;;1.74;0.73;;;;;;;10.38;36.00;100556.94;1993874;81;20204;-72
2021/04/14 09:42:21;;;;;;;1.77;0.75;;;;;;;9.91;39.41;100556.16;1994149;81;20203;-72
2021/04/14 09:45:26;;;;;;;0.86;0.60;;;;;;;10.08;40.30;100554.72;1993935;77;26613;-73
2021/04/14 09:48:46;;;;;;;5.53;0.99;;;;;;;10.35;40.18;100550.84;1999231;81;20210;-72
2021/04/14 09:51:59;;;;;;;1.84;0.88;;;;;;;9.70;39.08;100559.25;1999149;81;20182;-72
2021/04/14 09:55:15;;;;;;;1.67;0.90;;;;;;;9.54;41.04;100559.84;1998941;81;20199;-72
2021/04/14 09:58:26;;;;;;;2.15;0.81;;;;;;;9.39;41.42;100556.09;1998410;81;20527;-72
2021/04/14 10:01:34;;;;;;;1.61;0.71;;;;;;;9.20;41.29;100555.72;1995399;78;34658;-72
2021/04/14 10:04:37;;;;;;;0.89;0.60;;;;;;;9.00;41.87;100556.19;1993932;81;20621;-72
2021/04/14 10:07:41;;;;;;;2.08;0.65;;;;;;;8.87;42.61;100551.59;1993420;81;20205;-72
2021/04/14 10:10:45;;;;;;;2.11;0.60;;;;;;;8.89;43.40;100547.31;1993456;81;20661;-72
2021/04/14 10:13:47;;;;;;;2.72;0.75;;;;;;;8.91;43.14;100553.41;1994513;81;20582;-73
2021/04/14 10:16:52;;;;;;;2.46;1.14;;;;;;;9.05;43.59;100545.91;1995596;77;21940;-73
2021/04/14 10:19:58;;;;;;;2.22;0.94;;;;;;;9.51;43.51;100551.97;1998948;81;20166;-72
2021/04/14 10:23:00;;;;;;;2.41;0.89;;;;;;;10.25;41.82;100548.13;1998710;81;20166;-72
2021/04/14 10:26:05;;;;;;;2.06;0.98;;;;;;;10.86;39.53;100541.19;1998638;81;20166;-72
2021/04/14 10:29:09;;;;;;;2.85;1.09;;;;;;;11.44;37.02;100533.19;1998865;81;20185;-72
2021/04/14 10:32:17;;;;;;;2.36;1.20;;;;;;;11.77;34.65;100536.09;1998349;78;21333;-72
2021/04/14 10:35:26;;;;;;;4.00;0.89;;;;;;;12.29;34.74;100518.34;1999070;81;21015;-72
2021/04/14 10:38:33;;;;;;;0.81;0.60;;;;;;;12.70;35.97;100510.75;1999116;81;20193;-72
2021/04/14 10:41:35;;;;;;;1.55;0.76;;;;;;;13.12;33.39;100517.03;1998880;81;20203;-72
2021/04/14 10:44:37;;;;;;;0.82;0.70;;;;;;;13.18;30.75;100505.78;1998486;81;20186;-71
2021/04/14 10:47:41;;;;;;;0.75;0.50;;;;;;;12.97;32.28;100496.97;1993744;77;20653;-72
2021/04/14 10:50:43;;;;;;;1.09;0.70;;;;;;;12.62;32.19;100493.34;1994810;81;20203;-72
2021/04/14 10:53:48;;;;;;;3.25;0.76;;;;;;;12.42;31.90;100493.25;1993468;81;20892;-71
2021/04/14 10:57:05;;;;;;;1.00;0.50;;;;;;;12.23;32.66;100500.06;1994573;81;20741;-71
2021/04/14 11:00:11;;;;;;;2.34;0.66;;;;;;;11.90;32.67;100494.63;1993453;81;20204;-70
2021/04/14 11:03:17;;;;;;;1.64;0.69;;;;;;;11.29;32.12;100500.06;1999498;78;21748;-71
2021/04/14 11:06:19;;;;;;;4.66;0.82;;;;;;;10.85;34.61;100495.25;1998751;81;20191;-71
2021/04/14 11:09:22;;;;;;;2.38;0.71;;;;;;;10.39;36.17;100498.97;1999015;81;20215;-72
2021/04/14 11:12:25;;;;;;;2.04;0.64;;;;;;;10.06;36.91;100494.16;1999287;81;20720;-71
2021/04/14 11:15:32;;;;;;;1.71;0.60;;;;;;;9.95;38.00;100499.16;1996893;78;20272;-71
2021/04/14 11:18:37;;;;;;;1.15;0.43;;;;;;;9.74;38.39;100496.22;1994409;81;20186;-68
2021/04/14 11:21:39;;;;;;;1.89;0.70;;;;;;;9.61;38.13;100495.13;1992956;81;20186;-71
2021/04/14 11:24:45;;;;;;;1.24;0.73;;;;;;;9.57;38.50;100482.97;1994109;81;20652;-73
2021/04/14 11:27:57;;;;;;;2.13;1.00;;;;;;;9.54;38.01;100490.69;1993723;81;20208;-73
2021/04/14 11:30:59;;;;;;;1.92;0.93;;;;;;;9.44;37.74;100485.31;1993118;78;20166;-73
2021/04/14 11:34:16;;;;;;;0.91;0.50;;;;;;;9.52;38.13;100489.81;1993954;81;20198;-72
2021/04/14 11:37:20;;;;;;;0.65;0.56;;;;;;;9.52;37.40;100481.16;1994215;81;20204;-73
2021/04/14 11:40:21;;;;;;;4.05;0.50;;;;;;;9.31;36.86;100476.44;1994347;81;20226;-72
2021/04/14 11:43:26;;;;;;;0.64;0.54;;;;;;;9.43;37.38;100481.84;1993400;81;20210;-72
2021/04/14 11:46:36;;;;;;;0.66;0.60;;;;;;;9.54;38.02;100477.75;1995486;77;25297;-72
2021/04/14 11:49:38;;;;;;;2.38;0.56;;;;;;;9.62;37.02;100464.88;1998097;81;20261;-73
2021/04/14 11:53:00;;;;;;;0.79;0.40;;;;;;;9.64;36.61;100464.06;1998523;81;20666;-72
2021/04/14 11:56:02;;;;;;;1.10;0.50;;;;;;;9.66;36.27;100462.38;1998935;80;20732;-73
2021/04/14 11:59:17;;;;;;;0.88;0.44;;;;;;;9.86;36.15;100465.28;1998328;81;20225;-73
2021/04/14 12:02:27;;;;;;;2.78;0.50;;;;;;;9.89;35.08;100454.09;1994106;78;20761;-72
2021/04/14 12:05:29;;;;;;;1.00;0.46;;;;;;;9.90;34.37;100445.47;1993210;81;20520;-73
2021/04/14 12:08:31;;;;;;;2.10;0.40;;;;;;;10.07;33.77;100451.78;1994264;81;20198;-73
2021/04/14 12:11:33;;;;;;;1.20;0.60;;;;;;;10.41;32.84;100445.38;1993170;81;20202;-73
2021/04/14 12:14:39;;;;;;;0.54;0.49;;;;;;;10.74;31.11;100436.22;1993346;81;20166;-73
2021/04/14 12:17:40;;;;;;;0.65;0.60;;;;;;;11.47;33.13;100443.03;1997592;78;26004;-73
2021/04/14 12:20:45;;;;;;;1.65;0.90;;;;;;;12.09;31.74;100434.88;1997638;81;20677;-73
2021/04/14 12:23:49;;;;;;;0.84;0.45;;;;;;;12.34;29.20;100437.63;1998722;81;20279;-73
2021/04/14 12:26:50;;;;;;;0.36;0.35;;;;;;;12.89;30.58;100433.50;1999105;81;20201;-73
2021/04/14 12:29:52;;;;;;;1.71;0.70;;;;;;;13.23;30.98;100437.09;1998878;81;20669;-75
2021/04/14 12:32:54;;;;;;;3.03;0.70;;;;;;;13.28;31.73;100437.09;1993014;78;20202;-74
2021/04/14 12:35:56;;;;;;;0.95;0.66;;;;;;;12.94;32.19;100446.56;1993628;81;20254;-74
2021/04/14 12:38:58;;;;;;;1.44;0.64;;;;;;;12.53;33.28;100449.88;1993627;81;20222;-75
2021/04/14 12:42:00;;;;;;;2.76;0.76;;;;;;;11.92;32.75;100453.84;1993541;81;20186;-74
2021/04/14 12:45:13;;;;;;;2.33;0.60;;;;;;;11.41;34.15;100445.59;1992544;81;20302;-75
2021/04/14 12:48:24;;;;;;;1.08;0.82;;;;;;;11.11;34.18;100450.50;1998669;81;21435;-72
2021/04/14 12:51:44;;;;;;;1.63;0.47;;;;;;;10.78;34.28;100444.09;1998490;81;20195;-72
2021/04/14 12:54:47;;;;;;;1.39;0.60;;;;;;;10.57;35.08;100443.81;2001469;80;20442;-72
2021/04/14 12:57:49;;;;;;;1.84;0.61;;;;;;;10.44;34.50;100436.75;1996705;81;20169;-72
2021/04/14 13:00:51;;;;;;;1.23;0.64;;;;;;;10.37;33.28;100433.16;1997403;77;21299;-72
2021/04/14 13:04:04;;;;;;;1.26;0.70;;;;;;;10.30;33.59;100426.16;1994889;81;20186;-72
2021/04/14 13:07:21;;;;;;;2.40;1.49;;;;;;;10.30;32.98;100423.56;1994808;81;20171;-72
2021/04/14 13:10:29;;;;;;;1.09;0.57;;;;;;;10.32;32.59;100421.88;1994948;81;20684;-73
2021/04/14 13:13:31;;;;;;;2.20;0.60;;;;;;;10.41;32.61;100422.00;1994512;81;20779;-73
2021/04/14 13:16:41;;;;;;;1.42;0.50;;;;;;;10.39;32.79;100420.22;1996047;77;91444;-73
2021/04/14 13:19:43;;;;;;;0.88;0.60;;;;;;;10.29;32.93;100412.31;1999217;81;20259;-72
2021/04/14 13:22:51;;;;;;;1.19;0.71;;;;;;;10.31;32.76;100412.34;1999131;81;20174;-73
2021/04/14 13:26:06;;;;;;;1.98;0.86;;;;;;;10.35;32.74;100415.84;1999047;81;20357;-72
2021/04/14 13:29:33;;;;;;;1.09;0.65;;;;;;;10.41;32.34;100408.13;1999336;80;20946;-73
2021/04/14 13:32:40;;;;;;;1.14;0.91;;;;;;;10.43;32.24;100415.09;1994280;78;62916;-72
2021/04/14 13:36:06;;;;;;;1.92;0.72;;;;;;;10.57;31.94;100404.84;1994255;81;20304;-73
2021/04/14 13:39:20;;;;;;;3.46;2.09;;;;;;;10.67;31.88;100411.91;1997826;81;20708;-71
2021/04/14 13:42:32;;;;;;;1.06;0.70;;;;;;;10.45;31.07;100394.34;1994740;81;20162;-71
2021/04/14 13:45:54;;;;;;;2.70;0.70;;;;;;;10.52;32.39;100399.63;1994889;80;21066;-71
2021/04/14 13:49:22;;;;;;;0.88;0.50;;;;;;;10.55;33.77;100397.06;1999812;80;20696;-71
2021/04/14 13:52:27;;;;;;;1.53;1.22;;;;;;;10.57;33.31;100402.25;1998977;81;20217;-72
2021/04/14 13:55:30;;;;;;;0.52;0.52;;;;;;;10.62;32.51;100399.75;1999037;81;20194;-72
2021/04/14 13:58:50;;;;;;;1.33;0.59;;;;;;;10.63;32.54;100396.28;1999030;81;20166;-72
2021/04/14 14:02:02;;;;;;;3.25;0.74;;;;;;;10.72;32.72;100386.84;1996223;78;23060;-72
2021/04/14 14:05:20;;;;;;;0.85;0.57;;;;;;;10.87;31.96;100388.75;1994116;81;20291;-72
2021/04/14 14:08:30;;;;;;;2.22;0.54;;;;;;;11.00;32.06;100385.44;1994483;81;20181;-72
2021/04/14 14:11:35;;;;;;;2.61;0.60;;;;;;;11.28;31.97;100377.88;1994056;81;20179;-73
2021/04/14 14:14:39;;;;;;;2.42;0.81;;;;;;;11.56;31.15;100377.25;1994122;81;20863;-72
2021/04/14 14:17:45;;;;;;;4.56;1.00;;;;;;;11.78;30.57;100365.25;1998642;78;21305;-73
2021/04/14 14:20:47;;;;;;;0.69;0.69;;;;;;;11.96;30.13;100361.91;1998817;80;20637;-72
2021/04/14 14:23:56;;;;;;;1.46;0.60;;;;;;;12.25;29.60;100356.88;1999293;80;20303;-73
2021/04/14 14:27:00;;;;;;;2.56;0.98;;;;;;;12.10;26.98;100352.44;1999400;81;20201;-72